Time;durP1;ratioP1;P1;durP2;ratioP2;P2;SDS_P1;SDS_P2;PMS_P1;PMS_P2;Temp;Humidity;BMP_temperature;BMP_pressure;BME280_temperature;BME280_humidity;BME280_pressure;Samples;Min_cycle;Max_cycle;Signal;HPM_P1;HPM_P2
2022/06/05 00:02:36;;;;;;;35.70;31.98;;;13.20;63.00;;;;;;612837;234;26624;-70
2022/06/05 00:05:03;;;;;;;35.60;31.87;;;13.10;62.80;;;;;;607768;235;27398;-69
2022/06/05 00:07:31;;;;;;;34.15;30.55;;;13.10;64.40;;;;;;612308;235;26594;-69
2022/06/05 00:10:09;;;;;;;34.33;30.77;;;13.10;64.30;;;;;;612113;235;26830;-69
2022/06/05 00:12:54;;;;;;;33.78;30.15;;;13.10;65.10;;;;;;612443;235;26613;-68
2022/06/05 00:15:21;;;;;;;32.53;29.23;;;13.00;65.00;;;;;;612675;234;26602;-68
2022/06/05 00:17:49;;;;;;;33.17;29.00;;;13.00;65.70;;;;;;612705;235;27265;-68
2022/06/05 00:20:16;;;;;;;30.17;26.87;;;13.00;65.70;;;;;;612547;234;26829;-68
2022/06/05 00:22:44;;;;;;;30.33;27.13;;;13.00;65.00;;;;;;612322;235;26630;-69
2022/06/05 00:25:11;;;;;;;30.60;27.40;;;13.00;66.90;;;;;;612388;235;26896;-68
2022/06/05 00:27:41;;;;;;;29.25;26.25;;;12.90;67.00;;;;;;612421;234;26587;-68
2022/06/05 00:30:12;;;;;;;29.08;25.98;;;12.90;67.20;;;;;;612112;235;26659;-68
2022/06/05 00:32:48;;;;;;;29.08;26.15;;;12.80;66.90;;;;;;612050;235;26636;-69
2022/06/05 00:35:16;;;;;;;27.20;24.50;;;12.80;66.70;;;;;;612279;235;26898;-69
2022/06/05 00:38:06;;;;;;;26.95;24.17;;;12.70;67.30;;;;;;612176;235;26637;-69
2022/06/05 00:41:10;;;;;;;26.20;23.52;;;12.70;66.80;;;;;;612084;235;26680;-69
2022/06/05 00:43:37;;;;;;;25.48;22.77;;;12.60;66.60;;;;;;583120;230;26658;-68
2022/06/05 00:46:05;;;;;;;23.80;21.30;;;12.50;69.20;;;;;;612342;235;26770;-68
2022/06/05 00:48:33;;;;;;;23.75;21.17;;;12.40;68.60;;;;;;612409;235;26629;-68
2022/06/05 00:51:01;;;;;;;22.45;20.15;;;12.40;69.90;;;;;;612444;235;26616;-68
2022/06/05 00:53:30;;;;;;;23.90;21.40;;;12.40;71.10;;;;;;612328;235;26639;-69
2022/06/05 00:55:57;;;;;;;22.50;20.15;;;12.40;70.10;;;;;;613224;232;26643;-69
2022/06/05 00:58:25;;;;;;;22.40;20.10;;;12.40;70.10;;;;;;613722;234;26622;-68
2022/06/05 01:00:52;;;;;;;21.85;19.65;;;12.40;70.10;;;;;;613398;234;26838;-68
2022/06/05 01:03:19;;;;;;;21.52;19.27;;;12.30;70.60;;;;;;613244;234;26583;-68
2022/06/05 01:05:46;;;;;;;21.23;19.10;;;12.30;72.90;;;;;;613086;230;26908;-69
2022/06/05 01:08:13;;;;;;;19.98;17.92;;;12.30;73.10;;;;;;613012;235;26631;-70
2022/06/05 01:10:57;;;;;;;18.92;17.05;;;12.30;73.60;;;;;;612799;235;26632;-70
2022/06/05 01:13:42;;;;;;;19.27;17.37;;;12.20;73.20;;;;;;612808;235;26639;-69
2022/06/05 01:16:27;;;;;;;19.05;17.05;;;12.20;74.10;;;;;;610635;235;26600;-68
2022/06/05 01:19:18;;;;;;;17.77;15.98;;;12.20;73.20;;;;;;608695;235;26854;-69
2022/06/05 01:21:45;;;;;;;17.67;15.80;;;12.10;74.80;;;;;;609192;235;26809;-68
2022/06/05 01:24:20;;;;;;;18.35;15.75;;;12.10;75.80;;;;;;611703;235;26603;-69
2022/06/05 01:26:49;;;;;;;16.60;14.82;;;12.00;76.10;;;;;;612247;235;26623;-68
2022/06/05 01:29:19;;;;;;;16.00;14.50;;;11.90;76.60;;;;;;612360;235;26596;-68
2022/06/05 01:32:04;;;;;;;17.17;15.38;;;11.90;76.60;;;;;;612206;231;26583;-69
2022/06/05 01:34:58;;;;;;;15.30;13.75;;;11.90;78.70;;;;;;609637;235;26637;-70
2022/06/05 01:37:29;;;;;;;14.50;13.10;;;12.00;78.60;;;;;;609012;235;26680;-70
2022/06/05 01:39:58;;;;;;;15.20;13.70;;;12.00;78.80;;;;;;612167;235;26638;-69
2022/06/05 01:42:29;;;;;;;14.20;12.80;;;12.00;79.40;;;;;;612078;235;26633;-69
2022/06/05 01:44:56;;;;;;;14.10;12.80;;;11.90;80.60;;;;;;612294;234;26884;-70
2022/06/05 01:47:24;;;;;;;12.45;11.20;;;11.90;79.60;;;;;;612625;235;26629;-69
2022/06/05 01:49:53;;;;;;;13.70;12.40;;;12.00;80.70;;;;;;612652;235;26831;-69
2022/06/05 01:52:21;;;;;;;11.95;10.82;;;11.80;82.10;;;;;;612522;235;26622;-69
2022/06/05 01:54:50;;;;;;;12.25;11.05;;;11.80;82.00;;;;;;612501;235;26641;-69
2022/06/05 01:57:18;;;;;;;12.57;11.25;;;11.70;82.00;;;;;;612437;235;26647;-69
2022/06/05 01:59:48;;;;;;;12.15;10.95;;;11.70;82.70;;;;;;612356;235;26638;-69
2022/06/05 02:02:16;;;;;;;10.93;9.93;;;11.70;82.70;;;;;;612276;235;26682;-69
2022/06/05 02:04:46;;;;;;;10.65;9.65;;;11.70;84.00;;;;;;612053;235;26665;-69
2022/06/05 02:07:13;;;;;;;10.20;9.30;;;11.70;84.00;;;;;;612757;232;26644;-69
2022/06/05 02:09:40;;;;;;;11.52;10.35;;;11.60;83.90;;;;;;613536;234;26655;-69
2022/06/05 02:12:07;;;;;;;10.48;9.48;;;11.70;84.50;;;;;;613115;234;26574;-69
2022/06/05 02:14:34;;;;;;;9.75;8.85;;;11.70;84.70;;;;;;613273;234;26584;-69
2022/06/05 02:17:02;;;;;;;9.88;8.95;;;11.60;85.10;;;;;;613077;234;26581;-69
2022/06/05 02:19:30;;;;;;;9.90;8.98;;;11.50;86.80;;;;;;612864;235;26619;-69
2022/06/05 02:21:57;;;;;;;8.82;8.02;;;11.50;86.80;;;;;;612917;235;26862;-69
2022/06/05 02:24:24;;;;;;;9.23;8.32;;;11.50;87.80;;;;;;612552;235;26638;-69
2022/06/05 02:26:52;;;;;;;8.68;7.78;;;11.50;87.60;;;;;;612767;235;26813;-69
2022/06/05 02:29:20;;;;;;;8.95;8.15;;;11.50;88.50;;;;;;612837;234;26566;-69
2022/06/05 02:32:00;;;;;;;8.43;7.62;;;11.50;88.60;;;;;;612702;235;26863;-69
2022/06/05 02:34:33;;;;;;;8.50;7.80;;;11.50;88.80;;;;;;612434;235;26865;-69
2022/06/05 02:37:18;;;;;;;8.05;7.32;;;11.40;90.00;;;;;;611978;235;26576;-69
2022/06/05 02:40:03;;;;;;;8.43;7.60;;;11.40;90.20;;;;;;612570;235;26591;-69
2022/06/05 02:42:32;;;;;;;7.45;6.85;;;11.40;90.80;;;;;;611048;235;26603;-69
2022/06/05 02:45:17;;;;;;;7.20;6.60;;;11.40;90.80;;;;;;612085;234;26917;-70
2022/06/05 02:48:02;;;;;;;7.72;7.03;;;11.40;90.80;;;;;;610617;235;26659;-69
2022/06/05 02:50:31;;;;;;;6.75;6.12;;;11.40;91.20;;;;;;602625;235;26854;-70
2022/06/05 02:52:59;;;;;;;7.32;6.62;;;11.40;91.30;;;;;;612016;235;26622;-69
2022/06/05 02:55:26;;;;;;;11.12;6.75;;;11.50;91.30;;;;;;607436;235;26581;-69
2022/06/05 02:57:54;;;;;;;7.95;6.05;;;11.40;91.40;;;;;;610253;236;26541;-72
2022/06/05 03:00:22;;;;;;;21.85;7.03;;;11.40;91.40;;;;;;606909;235;26553;-68
2022/06/05 03:05:22;;;;;;;8.82;6.30;;;11.50;92.10;;;;;;610226;236;26573;-68
2022/06/05 03:07:49;;;;;;;6.90;5.57;;;11.50;91.70;;;;;;610238;236;26610;-68
2022/06/05 03:10:17;;;;;;;10.45;6.00;;;11.50;91.90;;;;;;609995;236;26581;-69
2022/06/05 03:12:45;;;;;;;10.80;5.90;;;11.40;91.60;;;;;;609867;235;26826;-68
2022/06/05 03:15:12;;;;;;;6.85;5.03;;;11.40;91.60;;;;;;609833;236;26813;-68
2022/06/05 03:17:39;;;;;;;6.70;5.10;;;11.40;91.80;;;;;;609848;236;26589;-68
2022/06/05 03:20:07;;;;;;;7.70;4.90;;;11.40;92.00;;;;;;611377;233;26946;-68
2022/06/05 03:22:34;;;;;;;5.87;4.47;;;11.50;92.10;;;;;;611040;235;26560;-68
2022/06/05 03:25:02;;;;;;;9.02;5.03;;;11.50;92.30;;;;;;610760;235;26838;-68
2022/06/05 03:27:30;;;;;;;5.30;4.37;;;11.50;92.10;;;;;;610664;235;26794;-68
2022/06/05 03:29:57;;;;;;;9.98;5.47;;;11.50;92.40;;;;;;610438;236;26588;-68
2022/06/05 03:32:24;;;;;;;6.35;4.70;;;11.50;92.40;;;;;;610315;236;26814;-68
2022/06/05 03:34:52;;;;;;;5.97;4.82;;;11.50;92.10;;;;;;610432;236;26609;-68
2022/06/05 03:37:20;;;;;;;8.60;4.60;;;11.50;92.30;;;;;;610353;235;26579;-68
2022/06/05 03:39:48;;;;;;;7.80;4.57;;;11.50;92.50;;;;;;610275;235;26689;-68
2022/06/05 03:42:16;;;;;;;4.78;4.30;;;11.60;92.30;;;;;;610170;236;26682;-68
2022/06/05 03:44:43;;;;;;;6.30;4.45;;;11.50;92.20;;;;;;610146;235;26611;-68
2022/06/05 03:47:10;;;;;;;10.50;4.55;;;11.60;92.50;;;;;;610163;236;26624;-67
2022/06/05 03:49:38;;;;;;;4.65;4.25;;;11.60;92.30;;;;;;610178;235;26987;-67
2022/06/05 03:52:05;;;;;;;5.12;4.35;;;11.60;92.30;;;;;;610141;236;26621;-67
2022/06/05 03:54:33;;;;;;;4.20;3.90;;;11.60;92.00;;;;;;610099;236;26674;-67
2022/06/05 03:57:00;;;;;;;5.43;4.03;;;11.60;92.00;;;;;;609781;236;26842;-68
2022/06/05 03:59:27;;;;;;;4.45;4.12;;;11.50;92.10;;;;;;609869;235;26589;-68
2022/06/05 04:01:55;;;;;;;4.97;4.25;;;11.60;92.00;;;;;;609880;236;27290;-68
2022/06/05 04:04:21;;;;;;;6.70;3.97;;;11.60;92.30;;;;;;609874;236;26609;-68
2022/06/05 04:06:49;;;;;;;4.40;4.00;;;11.60;92.20;;;;;;609841;235;26823;-68
2022/06/05 04:09:17;;;;;;;4.53;4.12;;;11.80;91.80;;;;;;609896;235;26590;-68
2022/06/05 04:11:45;;;;;;;4.15;3.28;;;11.80;91.10;;;;;;609836;236;26633;-68
2022/06/05 04:14:12;;;;;;;4.22;3.83;;;11.90;91.00;;;;;;609861;236;26612;-68
2022/06/05 04:16:40;;;;;;;3.78;3.42;;;11.90;91.00;;;;;;609860;236;26585;-68
2022/06/05 04:19:08;;;;;;;5.93;3.90;;;12.00;91.40;;;;;;609862;235;26595;-68
2022/06/05 04:21:36;;;;;;;4.03;3.72;;;12.00;91.20;;;;;;609859;235;26896;-68
2022/06/05 04:24:03;;;;;;;3.75;3.42;;;12.10;91.20;;;;;;609865;236;26621;-68
2022/06/05 04:26:30;;;;;;;4.15;3.85;;;12.20;90.30;;;;;;609888;235;26922;-68
2022/06/05 04:28:57;;;;;;;4.68;3.95;;;12.20;89.20;;;;;;609716;236;26608;-68
2022/06/05 04:31:25;;;;;;;3.60;3.30;;;12.20;90.00;;;;;;611216;233;27283;-68
2022/06/05 04:33:53;;;;;;;4.22;3.83;;;12.40;90.10;;;;;;611089;234;26588;-68
2022/06/05 04:36:20;;;;;;;3.78;3.47;;;12.30;90.10;;;;;;610716;235;26592;-68
2022/06/05 04:38:48;;;;;;;4.00;3.70;;;12.40;89.90;;;;;;610726;235;26579;-69
2022/06/05 04:41:15;;;;;;;3.30;3.10;;;12.50;87.60;;;;;;610426;235;26880;-69
2022/06/05 04:43:42;;;;;;;4.37;3.50;;;12.50;89.10;;;;;;610434;235;26585;-68
2022/06/05 04:46:09;;;;;;;3.75;3.45;;;12.60;87.40;;;;;;610449;235;26962;-68
2022/06/05 04:48:36;;;;;;;3.30;3.10;;;12.70;87.00;;;;;;610333;235;26556;-68
2022/06/05 04:51:04;;;;;;;3.37;3.10;;;12.70;85.50;;;;;;610184;235;26605;-68
2022/06/05 04:53:32;;;;;;;3.00;2.80;;;12.90;85.00;;;;;;610077;236;26645;-68
2022/06/05 04:55:59;;;;;;;3.72;3.42;;;13.00;84.10;;;;;;610195;236;26891;-68
2022/06/05 04:58:26;;;;;;;3.60;3.20;;;13.10;83.80;;;;;;609824;236;26651;-68
2022/06/05 05:00:53;;;;;;;3.65;3.45;;;13.20;84.90;;;;;;610195;236;27263;-68
2022/06/05 05:03:20;;;;;;;3.12;2.83;;;13.30;83.10;;;;;;610181;236;26630;-68
2022/06/05 05:05:48;;;;;;;2.67;2.47;;;13.40;84.30;;;;;;610138;235;26888;-68
2022/06/05 05:08:16;;;;;;;3.37;3.17;;;13.60;81.30;;;;;;609829;235;26585;-68
2022/06/05 05:10:43;;;;;;;3.40;3.20;;;13.70;81.60;;;;;;609826;235;26581;-68
2022/06/05 05:13:11;;;;;;;5.55;3.37;;;13.80;81.60;;;;;;609870;236;26591;-69
2022/06/05 05:15:39;;;;;;;3.00;2.80;;;13.90;80.90;;;;;;609841;236;26635;-69
2022/06/05 05:18:07;;;;;;;3.33;3.10;;;14.00;80.50;;;;;;609898;236;26951;-68
2022/06/05 05:20:35;;;;;;;3.40;3.20;;;14.00;80.50;;;;;;609850;236;26813;-68
2022/06/05 05:23:02;;;;;;;3.22;3.03;;;14.10;79.60;;;;;;609906;236;26643;-68
2022/06/05 05:25:29;;;;;;;3.30;3.10;;;14.20;79.30;;;;;;609851;235;27383;-68
2022/06/05 05:27:56;;;;;;;2.95;2.75;;;14.30;78.70;;;;;;609889;236;26599;-68
2022/06/05 05:30:23;;;;;;;3.35;3.03;;;14.40;78.00;;;;;;609846;235;26843;-69
2022/06/05 05:32:51;;;;;;;2.83;2.60;;;14.60;77.00;;;;;;609833;235;26652;-68
2022/06/05 05:35:20;;;;;;;3.40;3.12;;;14.70;76.80;;;;;;609690;236;26853;-69
2022/06/05 05:37:45;;;;;;;2.87;2.78;;;14.80;74.90;;;;;;609623;236;26607;-69
2022/06/05 05:42:45;;;;;;;2.92;2.72;;;15.00;75.40;;;;;;601891;235;26604;-68
2022/06/05 05:45:13;;;;;;;3.03;2.83;;;15.20;73.50;;;;;;611071;234;26612;-68
2022/06/05 05:47:40;;;;;;;2.70;2.60;;;15.20;73.50;;;;;;610783;235;26634;-68
2022/06/05 05:50:10;;;;;;;2.58;2.47;;;15.40;72.70;;;;;;610730;235;26580;-68
2022/06/05 05:52:35;;;;;;;2.75;2.58;;;15.50;71.80;;;;;;610449;235;26607;-68
2022/06/05 05:55:03;;;;;;;3.58;2.60;;;15.60;73.30;;;;;;610423;234;26968;-68
2022/06/05 05:57:31;;;;;;;2.80;2.60;;;15.80;71.40;;;;;;610494;236;26580;-68
2022/06/05 05:59:59;;;;;;;3.10;2.90;;;15.90;71.20;;;;;;610354;235;26544;-68
2022/06/05 06:02:26;;;;;;;2.90;2.70;;;16.00;71.30;;;;;;610039;236;26633;-68
2022/06/05 06:04:53;;;;;;;2.87;2.67;;;16.10;68.90;;;;;;610094;235;26979;-68
2022/06/05 06:07:20;;;;;;;2.50;2.40;;;16.20;68.00;;;;;;610154;236;26602;-68
2022/06/05 06:09:47;;;;;;;2.65;2.50;;;16.30;68.70;;;;;;610179;235;26850;-68
2022/06/05 06:12:15;;;;;;;2.80;2.50;;;16.40;68.00;;;;;;610157;230;26640;-69
2022/06/05 06:14:43;;;;;;;2.92;2.72;;;16.70;67.40;;;;;;610180;236;26659;-68
2022/06/05 06:17:11;;;;;;;2.70;2.50;;;16.80;67.60;;;;;;610146;231;26586;-68
2022/06/05 06:19:39;;;;;;;2.78;2.58;;;17.00;67.60;;;;;;609875;235;26591;-69
2022/06/05 06:22:07;;;;;;;3.35;2.37;;;16.90;67.30;;;;;;609761;231;26597;-69
2022/06/05 06:24:34;;;;;;;3.00;2.80;;;17.10;67.20;;;;;;609910;235;26617;-69
2022/06/05 06:27:01;;;;;;;2.97;2.78;;;17.20;65.00;;;;;;609880;235;26851;-69
2022/06/05 06:29:28;;;;;;;2.75;2.55;;;17.30;65.00;;;;;;609857;235;26587;-69
2022/06/05 06:31:55;;;;;;;2.65;2.45;;;17.40;64.40;;;;;;609837;236;26816;-68
2022/06/05 06:34:23;;;;;;;2.85;2.65;;;17.50;64.60;;;;;;609868;236;26604;-69
2022/06/05 06:36:50;;;;;;;2.12;2.03;;;17.50;64.00;;;;;;609897;235;27007;-68
2022/06/05 06:39:17;;;;;;;2.47;2.37;;;17.70;63.70;;;;;;609837;236;26614;-69
2022/06/05 06:41:44;;;;;;;2.45;2.35;;;17.80;62.90;;;;;;609837;235;26840;-69
2022/06/05 06:44:12;;;;;;;2.70;2.50;;;18.10;62.20;;;;;;609815;235;26619;-69
2022/06/05 06:46:40;;;;;;;2.65;2.55;;;18.10;61.80;;;;;;609873;236;26583;-69
2022/06/05 06:49:09;;;;;;;2.97;2.78;;;18.20;62.50;;;;;;609883;236;26578;-69
2022/06/05 06:51:36;;;;;;;2.92;2.72;;;18.30;61.80;;;;;;609875;236;26560;-68
2022/06/05 06:54:03;;;;;;;2.55;2.45;;;18.30;61.90;;;;;;610788;233;26619;-67
2022/06/05 06:56:30;;;;;;;2.67;2.45;;;18.40;61.20;;;;;;611169;235;26610;-68
2022/06/05 06:58:58;;;;;;;2.55;2.45;;;18.50;62.30;;;;;;610791;231;26612;-68
2022/06/05 07:01:25;;;;;;;2.53;2.35;;;18.60;62.20;;;;;;610737;235;26817;-67
2022/06/05 07:03:52;;;;;;;2.50;2.30;;;18.60;60.70;;;;;;610434;235;26560;-67
2022/06/05 07:06:20;;;;;;;2.40;2.30;;;18.70;60.70;;;;;;610457;236;27210;-68
2022/06/05 07:08:49;;;;;;;2.53;2.40;;;18.80;60.20;;;;;;610481;235;26831;-67
2022/06/05 07:11:14;;;;;;;2.10;2.00;;;19.00;60.00;;;;;;610385;230;26542;-66
2022/06/05 07:13:42;;;;;;;2.72;2.60;;;19.10;59.50;;;;;;610087;236;26847;-68
2022/06/05 07:16:09;;;;;;;2.55;2.45;;;19.10;59.50;;;;;;610246;236;26658;-69
2022/06/05 07:18:37;;;;;;;2.72;2.60;;;19.20;59.60;;;;;;610250;235;26635;-69
2022/06/05 07:21:07;;;;;;;2.90;2.70;;;19.30;59.30;;;;;;610275;235;26600;-69
2022/06/05 07:23:34;;;;;;;2.20;2.10;;;19.30;59.30;;;;;;610178;236;26811;-68
2022/06/05 07:26:01;;;;;;;2.70;2.50;;;19.40;59.30;;;;;;610247;236;26656;-68
2022/06/05 07:28:29;;;;;;;2.50;2.40;;;19.50;59.00;;;;;;610268;230;26869;-68
2022/06/05 07:30:56;;;;;;;2.67;2.47;;;19.60;59.20;;;;;;609935;235;26584;-69
2022/06/05 07:33:23;;;;;;;2.53;2.42;;;19.70;58.40;;;;;;609872;235;27257;-69
2022/06/05 07:35:57;;;;;;;2.62;2.53;;;19.80;58.90;;;;;;609839;236;26613;-68
2022/06/05 07:38:25;;;;;;;2.55;2.45;;;19.90;58.20;;;;;;609812;235;26868;-69
2022/06/05 07:40:52;;;;;;;2.53;2.42;;;20.00;58.60;;;;;;609857;236;26585;-69
2022/06/05 07:43:21;;;;;;;2.70;2.60;;;20.20;58.30;;;;;;609850;236;26949;-69
2022/06/05 07:45:47;;;;;;;2.70;2.55;;;20.30;58.10;;;;;;609851;235;26622;-69
2022/06/05 07:48:17;;;;;;;2.40;2.30;;;20.40;56.80;;;;;;609809;236;26881;-69
2022/06/05 07:55:49;;;;;;;2.37;2.28;;;20.60;56.30;;;;;;609871;236;26612;-68
2022/06/05 07:58:16;;;;;;;2.95;2.75;;;20.60;56.50;;;;;;609859;235;26933;-68
2022/06/05 08:00:43;;;;;;;3.08;2.87;;;20.70;55.90;;;;;;609865;236;26591;-68
2022/06/05 08:03:10;;;;;;;2.62;2.50;;;20.70;55.50;;;;;;609819;235;26822;-69
2022/06/05 08:05:37;;;;;;;2.78;2.58;;;20.80;55.50;;;;;;610838;233;26612;-68
2022/06/05 08:08:05;;;;;;;2.87;2.67;;;20.80;55.70;;;;;;611187;235;27284;-69
2022/06/05 08:10:33;;;;;;;3.67;2.90;;;21.00;55.90;;;;;;610739;235;26627;-69
2022/06/05 08:13:01;;;;;;;2.97;2.78;;;21.10;55.60;;;;;;610659;235;26572;-67
2022/06/05 08:15:28;;;;;;;2.47;2.30;;;21.10;55.60;;;;;;610454;234;26881;-68
2022/06/05 08:17:56;;;;;;;2.55;2.45;;;21.20;54.40;;;;;;610445;236;26594;-69
2022/06/05 08:20:24;;;;;;;3.15;2.87;;;21.20;54.20;;;;;;610448;236;26579;-68
2022/06/05 08:22:51;;;;;;;2.37;2.28;;;21.20;54.20;;;;;;610365;236;26579;-68
2022/06/05 08:25:19;;;;;;;2.40;2.30;;;21.30;54.80;;;;;;610408;235;26651;-68
2022/06/05 08:27:46;;;;;;;2.47;2.28;;;21.40;54.80;;;;;;610120;236;26897;-68
2022/06/05 08:30:13;;;;;;;3.28;2.97;;;21.40;53.00;;;;;;610122;236;26657;-68
2022/06/05 08:32:41;;;;;;;3.00;2.70;;;21.40;52.10;;;;;;610129;236;26665;-68
2022/06/05 08:35:09;;;;;;;3.45;3.15;;;21.50;52.90;;;;;;610132;235;26664;-68
2022/06/05 08:43:01;;;;;;;2.30;2.20;;;21.70;50.60;;;;;;609842;236;26590;-68
2022/06/05 08:45:29;;;;;;;2.70;2.50;;;21.70;50.60;;;;;;609093;236;26611;-67
2022/06/05 08:47:57;;;;;;;3.62;2.40;;;21.80;50.90;;;;;;609193;236;26872;-70
2022/06/05 08:50:25;;;;;;;2.25;2.15;;;21.70;50.80;;;;;;609458;236;26813;-69
2022/06/05 08:52:57;;;;;;;2.50;2.40;;;21.80;49.80;;;;;;608750;236;26600;-69
2022/06/05 08:55:40;;;;;;;3.03;2.72;;;21.90;49.20;;;;;;609400;235;26613;-69
2022/06/05 08:58:12;;;;;;;2.62;2.42;;;21.90;49.30;;;;;;612417;235;26652;-69
2022/06/05 09:00:43;;;;;;;2.70;2.50;;;22.00;50.00;;;;;;611981;235;26651;-69
2022/06/05 09:03:21;;;;;;;2.35;2.25;;;22.00;49.60;;;;;;612368;235;26579;-69
2022/06/05 09:05:46;;;;;;;3.00;2.80;;;22.10;48.30;;;;;;612034;235;26580;-70
2022/06/05 09:08:15;;;;;;;2.45;2.35;;;22.10;48.40;;;;;;612417;234;26668;-69
2022/06/05 09:10:45;;;;;;;2.67;2.47;;;22.10;48.30;;;;;;612487;235;26639;-69
2022/06/05 09:13:29;;;;;;;2.87;2.67;;;22.20;48.60;;;;;;612353;235;26908;-69
2022/06/05 09:16:01;;;;;;;2.30;2.15;;;22.20;48.40;;;;;;607338;235;26667;-68
2022/06/05 09:18:29;;;;;;;2.55;2.42;;;22.20;48.10;;;;;;614005;234;26668;-66
2022/06/05 09:20:57;;;;;;;2.65;2.45;;;22.30;49.70;;;;;;613122;234;26597;-66
2022/06/05 09:23:32;;;;;;;2.28;2.17;;;22.30;49.30;;;;;;613290;234;26909;-66
2022/06/05 09:26:17;;;;;;;3.12;2.50;;;22.40;48.80;;;;;;612994;233;26602;-66
2022/06/05 09:29:02;;;;;;;2.92;2.72;;;22.50;49.00;;;;;;613062;235;26641;-66
2022/06/05 09:31:48;;;;;;;2.60;2.40;;;22.50;50.20;;;;;;608116;235;26647;-66
2022/06/05 09:34:17;;;;;;;2.60;2.40;;;22.60;48.90;;;;;;612615;235;26667;-65
2022/06/05 09:36:45;;;;;;;2.90;2.60;;;22.60;49.60;;;;;;612709;235;26589;-66
2022/06/05 09:39:27;;;;;;;2.20;2.10;;;22.60;48.80;;;;;;612186;235;26836;-65
2022/06/05 09:41:57;;;;;;;2.60;2.40;;;22.80;48.80;;;;;;609153;235;26609;-66
2022/06/05 09:44:57;;;;;;;2.70;2.60;;;22.80;47.90;;;;;;602356;238;26834;-66
2022/06/05 09:47:27;;;;;;;2.78;2.58;;;22.80;47.80;;;;;;605875;236;26652;-66
2022/06/05 09:49:55;;;;;;;2.28;2.12;;;22.80;47.70;;;;;;604049;238;26590;-66
2022/06/05 09:52:24;;;;;;;2.78;2.58;;;23.00;48.00;;;;;;601547;236;26590;-66
2022/06/05 09:54:52;;;;;;;2.42;2.30;;;23.10;47.80;;;;;;602348;238;26650;-67
2022/06/05 10:00:07;;;;;;;2.50;2.40;;;23.10;46.90;;;;;;602635;236;26922;-69
2022/06/05 10:02:33;;;;;;;2.53;2.42;;;23.20;46.60;;;;;;607763;236;26582;-66
2022/06/05 10:05:00;;;;;;;2.62;2.42;;;23.20;46.60;;;;;;602743;237;26670;-66
2022/06/05 10:07:31;;;;;;;2.42;2.33;;;23.30;46.90;;;;;;607772;236;26627;-67
2022/06/05 10:09:58;;;;;;;2.97;2.50;;;23.40;46.40;;;;;;602863;236;26893;-66
2022/06/05 10:12:29;;;;;;;2.30;2.20;;;23.40;46.50;;;;;;603044;235;26636;-66
2022/06/05 10:15:07;;;;;;;2.40;2.30;;;23.60;46.10;;;;;;608109;235;26710;-66
2022/06/05 10:17:44;;;;;;;2.25;2.00;;;23.60;46.10;;;;;;603484;238;26581;-67
2022/06/05 10:20:20;;;;;;;2.72;2.53;;;23.60;45.50;;;;;;604278;238;26590;-67
2022/06/05 10:22:53;;;;;;;2.03;1.92;;;23.60;45.90;;;;;;603567;238;26854;-67
2022/06/05 10:25:43;;;;;;;2.28;2.17;;;23.70;46.50;;;;;;604310;238;26847;-67
2022/06/05 10:28:11;;;;;;;2.40;2.22;;;23.80;45.90;;;;;;599288;235;26597;-67
2022/06/05 10:30:41;;;;;;;2.15;2.05;;;24.00;45.90;;;;;;605739;237;26605;-65
2022/06/05 10:33:24;;;;;;;2.47;2.30;;;24.00;45.90;;;;;;605462;235;26830;-65
2022/06/05 10:35:58;;;;;;;2.85;2.30;;;24.00;46.10;;;;;;606110;234;26645;-65
2022/06/05 10:38:43;;;;;;;2.15;2.05;;;24.10;45.70;;;;;;604655;234;26587;-64
2022/06/05 10:41:16;;;;;;;2.70;2.45;;;24.10;45.70;;;;;;602515;237;26866;-64
2022/06/05 10:43:43;;;;;;;2.10;2.00;;;24.10;45.60;;;;;;602481;237;26879;-64
2022/06/05 10:46:18;;;;;;;2.40;2.30;;;24.30;46.50;;;;;;603970;236;26582;-62
2022/06/05 10:48:57;;;;;;;2.65;2.33;;;24.40;47.00;;;;;;607741;236;26623;-63
2022/06/05 10:51:35;;;;;;;4.62;2.95;;;24.40;47.00;;;;;;603382;237;26842;-63
2022/06/05 10:54:12;;;;;;;2.60;2.40;;;24.60;46.70;;;;;;601935;238;26609;-64
2022/06/05 10:56:59;;;;;;;2.45;2.35;;;24.50;46.70;;;;;;611096;234;26589;-63
2022/06/05 10:59:47;;;;;;;2.90;2.67;;;24.60;47.10;;;;;;603479;237;26591;-63
2022/06/05 11:02:31;;;;;;;3.35;2.72;;;24.60;47.20;;;;;;603231;238;26820;-62
2022/06/05 11:04:59;;;;;;;3.92;2.62;;;24.70;46.90;;;;;;605157;235;26626;-63
2022/06/05 11:07:30;;;;;;;2.72;2.53;;;24.70;46.90;;;;;;605049;235;26608;-63
2022/06/05 11:09:58;;;;;;;2.95;2.60;;;24.70;47.00;;;;;;610142;235;26593;-62
2022/06/05 11:15:26;;;;;;;2.17;2.08;;;24.90;47.20;;;;;;607300;236;26616;-62
2022/06/05 11:18:07;;;;;;;2.87;2.67;;;25.00;47.40;;;;;;602536;236;26614;-63
2022/06/05 11:20:34;;;;;;;2.60;2.40;;;25.10;47.90;;;;;;611196;235;26979;-62
2022/06/05 11:23:03;;;;;;;2.78;2.60;;;25.20;47.40;;;;;;604532;235;26594;-62
2022/06/05 11:25:46;;;;;;;3.20;2.90;;;25.10;47.30;;;;;;601524;239;26644;-62
2022/06/05 11:28:13;;;;;;;5.97;3.28;;;25.20;46.50;;;;;;602437;236;26880;-62
2022/06/05 11:30:42;;;;;;;3.33;3.03;;;25.10;47.20;;;;;;601456;236;26650;-62
2022/06/05 11:33:10;;;;;;;2.47;2.35;;;25.10;47.60;;;;;;609582;236;26589;-62
2022/06/05 11:35:57;;;;;;;3.05;2.60;;;25.20;47.80;;;;;;604311;236;26625;-62
2022/06/05 11:38:31;;;;;;;2.72;2.53;;;25.20;47.30;;;;;;604112;237;26829;-61
2022/06/05 11:40:58;;;;;;;2.58;2.47;;;25.20;47.70;;;;;;603401;237;26851;-61
2022/06/05 11:43:39;;;;;;;2.70;2.60;;;25.30;48.70;;;;;;608362;235;26699;-61
2022/06/05 11:46:12;;;;;;;2.83;2.62;;;25.30;47.60;;;;;;603755;234;26613;-61
2022/06/05 11:48:47;;;;;;;5.18;3.30;;;25.30;48.20;;;;;;604756;236;27226;-61
2022/06/05 11:51:21;;;;;;;3.28;2.90;;;25.40;47.70;;;;;;605252;235;26641;-62
2022/06/05 11:53:56;;;;;;;2.95;2.75;;;25.40;47.70;;;;;;604977;233;26652;-61
2022/06/05 11:56:40;;;;;;;3.20;2.90;;;25.50;47.60;;;;;;604678;237;26661;-61
2022/06/05 11:59:16;;;;;;;3.28;2.97;;;25.50;47.70;;;;;;600718;236;26594;-61
2022/06/05 12:01:44;;;;;;;2.60;2.40;;;25.60;47.20;;;;;;603338;236;26589;-61
2022/06/05 12:04:21;;;;;;;2.60;2.40;;;25.70;47.30;;;;;;604260;236;26607;-61
2022/06/05 12:06:50;;;;;;;2.80;2.60;;;25.60;47.30;;;;;;606024;236;26847;-62
2022/06/05 12:09:17;;;;;;;3.25;2.62;;;25.80;47.30;;;;;;611110;235;26631;-62
2022/06/05 12:11:50;;;;;;;2.78;2.55;;;25.90;47.70;;;;;;605100;235;26868;-62
2022/06/05 12:14:33;;;;;;;3.80;2.80;;;26.20;46.70;;;;;;605461;236;26860;-62
2022/06/05 12:17:12;;;;;;;4.25;3.25;;;26.40;45.70;;;;;;602692;238;26653;-62
2022/06/05 12:19:58;;;;;;;3.53;2.60;;;26.80;45.30;;;;;;604919;235;26854;-62
2022/06/05 12:22:26;;;;;;;3.12;2.87;;;27.40;44.20;;;;;;602375;234;26633;-62
2022/06/05 12:25:13;;;;;;;3.70;2.87;;;27.80;43.80;;;;;;608565;234;26700;-62
2022/06/05 12:27:43;;;;;;;2.70;2.55;;;28.20;43.60;;;;;;603097;235;26666;-62
2022/06/05 12:30:15;;;;;;;3.53;3.20;;;28.10;43.50;;;;;;605153;235;26650;-63
2022/06/05 12:32:49;;;;;;;3.95;3.03;;;28.70;42.50;;;;;;604766;236;26811;-63
2022/06/05 12:35:17;;;;;;;3.33;3.00;;;28.70;42.50;;;;;;603821;237;26614;-64
2022/06/05 12:37:47;;;;;;;3.62;3.28;;;29.20;42.80;;;;;;608267;236;26594;-64
2022/06/05 12:40:15;;;;;;;4.15;3.08;;;29.50;42.40;;;;;;602511;237;26868;-63
2022/06/05 12:42:58;;;;;;;4.68;3.45;;;29.80;42.30;;;;;;602866;236;26832;-63
2022/06/05 12:45:25;;;;;;;4.50;3.58;;;29.90;42.00;;;;;;601149;235;26655;-63
2022/06/05 12:47:58;;;;;;;4.15;3.37;;;30.30;40.80;;;;;;603971;238;26589;-66
2022/06/05 12:50:32;;;;;;;3.45;3.15;;;30.70;40.50;;;;;;604959;236;26636;-63
2022/06/05 12:53:00;;;;;;;3.80;3.33;;;30.70;40.60;;;;;;607341;233;26611;-63
2022/06/05 12:55:32;;;;;;;3.67;3.15;;;31.40;40.30;;;;;;605009;237;26903;-63
2022/06/05 12:58:16;;;;;;;3.35;3.05;;;32.30;39.90;;;;;;602318;237;26650;-63
2022/06/05 13:00:48;;;;;;;3.62;3.33;;;32.90;39.10;;;;;;601823;235;26711;-63
2022/06/05 13:03:37;;;;;;;2.95;2.70;;;33.40;38.50;;;;;;604111;237;26703;-63
2022/06/05 13:06:11;;;;;;;3.10;2.85;;;33.40;38.20;;;;;;608787;234;26634;-63
2022/06/05 13:08:50;;;;;;;3.53;3.22;;;34.00;37.60;;;;;;606255;236;26575;-63
2022/06/05 13:11:21;;;;;;;4.05;3.20;;;34.00;37.70;;;;;;603558;236;26598;-63
2022/06/05 13:13:58;;;;;;;3.40;3.10;;;34.70;36.90;;;;;;609516;235;26652;-63
2022/06/05 13:16:27;;;;;;;3.70;3.40;;;35.10;36.30;;;;;;602144;232;26553;-63
2022/06/05 13:18:58;;;;;;;5.05;3.53;;;35.90;35.80;;;;;;607343;236;26611;-63
2022/06/05 13:21:26;;;;;;;3.85;3.50;;;36.50;35.00;;;;;;602977;235;26564;-64
2022/06/05 13:23:56;;;;;;;3.85;3.55;;;36.80;33.90;;;;;;610826;235;26563;-63